Chadron Municipal Airport
KCDR : now visible

Airfield :











YOU CAN JOIN US ON...

 
LOGIN :

Register | Disclaimer

   EN    FR    IT 

 









Legend :    VFR   Marginal VFR   IFR   Intensive IFR   Very Intensive IFR
Visi :
Ceiling :
>= 8 km
>= 3000ft
5 to 8 km
1000 to 3000 ft
1500m to 5 km
500 to 1000 ft
800 to 1500m
200 to 500 ft
< 800m
< 200 ft
Symbols :   Thunderstorms  Fog  Heavy snow  Heavy precipitations  Wind > 20 kt







- Airport Elevation : 3297 ft


KCDR - Chadron Municipal

CURRENT METAR :
  • 191153Z AUTO 32005KT 10SM FEW021 OVC028 03/01 A3000 RMK AO2 SLP183 70006 T00280011 10028 20022 53008

EXPIRED METARs :
  • 191053Z AUTO 32005KT 10SM OVC026 03/01 A2999 RMK AO2 SLP174 T00280006
  • 190953Z AUTO 33005KT 10SM OVC025 03/00 A2999 RMK AO2 SLP172 T00280000
  • 190905Z AUTO 34007KT 10SM OVC029 03/01 A2998 RMK AO2 T00280006

TAF KCDR
Valid from the 19 at 12:00 until the 20 at 12:00 UTC


191120Z 1912/2012 36009KT P6SM OVC025
FM200000 06009KT P6SM VCSH BKN050
FM200600 09008KT P6SM -SHRA OVC015
KZDV FIR / North America



MET'MAP, your aeronautical weather chart ! - Copyright ORBIFLY December 2007 - Disclaimer

ORBIFLY MET'MAP TEAM :

Programming & Development : Alexandra Zaïnal
Concept & Development : Baudouin d'Aumeries
Co-Development & Prog : Marc-Olivier Méhu
Technical & hardware support : Manuel Goepfert

Contact : metmap@orbifly.com




SOURCES & CREDITS :

   NOAA       Earth
Advisory